Date,TemperatureHighF,TemperatureAvgF,TemperatureLowF,DewpointHighF,DewpointAvgF,DewpointLowF,HumidityHigh,HumidityAvg,HumidityLow,PressureMaxIn,PressureMinIn,WindSpeedMaxMPH,WindSpeedAvgMPH,GustSpeedMaxMPH,PrecipitationSumIn
2014-2-19,-200.0,0.0,200.0,-99.9,-99.9,-99.9,0,0,100,29.94,29.93,0,-999,0,0.00
2014-9-18,66.4,60.1,55.0,53.2,52.1,50.6,86,76,58,30.11,30.06,7,1,11,0.00
2014-9-19,71.8,61.4,52.5,53.8,50.3,47.9,92,69,44,30.15,29.90,8,4,14,0.01
2014-9-20,77.9,67.5,59.2,66.8,59.3,48.1,93,75,64,29.90,29.66,8,3,16,0.03
2014-9-21,69.8,60.4,54.4,66.9,52.6,42.8,93,76,64,30.06,29.59,20,11,30,0.09
2014-9-22,58.9,52.8,44.2,47.5,43.3,37.5,87,71,59,30.23,30.06,9,3,14,0.00
2014-9-23,67.6,55.8,45.5,52.6,46.9,42.2,89,74,43,30.31,30.23,7,2,12,0.00
2014-9-24,75.1,60.8,48.0,57.3,50.0,45.5,92,70,40,30.34,30.22,6,1,11,0.01
2014-9-25,74.7,61.6,54.2,56.2,52.5,49.6,87,73,49,30.25,30.17,7,1,11,0.00
2014-9-26,75.8,64.3,53.1,58.9,53.9,49.4,89,71,47,30.23,30.16,7,2,9,0.00
2014-9-27,73.9,64.2,54.5,61.0,56.4,50.7,90,77,60,30.22,30.11,9,2,10,0.00
2014-9-28,72.0,62.3,53.3,59.3,55.5,50.7,92,80,55,30.12,30.00,8,2,9,0.00
2014-9-29,76.1,61.3,49.2,60.9,53.4,47.3,94,78,43,30.00,29.85,13,2,17,0.01
2014-9-30,56.7,53.5,50.5,50.9,46.1,44.0,84,76,64,29.99,29.92,10,2,15,0.00
2014-10-1,67.9,59.4,53.5,51.6,49.3,47.2,82,70,54,30.00,29.87,7,3,12,0.00
2014-10-2,74.0,65.4,58.0,65.7,59.2,49.3,93,81,65,29.88,29.61,8,2,13,0.24
2014-10-3,65.6,58.1,48.8,63.8,51.8,35.2,94,80,59,29.69,29.35,17,10,29,1.17
2014-10-4,50.2,45.7,40.1,41.9,36.0,31.2,84,69,55,29.69,29.61,16,10,26,0.32
2014-10-5,55.1,50.4,43.6,40.5,36.0,31.0,75,58,42,29.69,29.59,11,5,22,0.00
2014-10-6,59.9,54.0,46.5,49.1,42.5,36.2,87,67,44,29.62,29.50,10,4,19,0.02
2014-10-7,62.9,55.2,46.0,52.9,46.1,37.1,84,72,53,29.75,29.59,15,4,20,0.00
2014-10-8,61.3,57.2,54.4,45.3,40.9,34.1,68,55,40,29.96,29.75,13,10,21,0.00
2014-10-9,53.5,45.4,38.9,36.9,35.3,33.2,89,70,46,30.09,30.04,8,2,10,0.00
2014-10-10,56.7,46.9,36.5,42.4,38.3,34.1,92,74,53,30.15,30.08,8,2,11,0.00
2014-10-11,56.5,45.6,35.3,40.6,35.3,32.0,91,70,40,30.22,30.11,9,2,14,0.00
2014-10-12,58.1,45.8,36.9,45.8,37.0,32.6,89,73,50,30.14,29.85,10,3,18,0.00
2014-10-13,72.3,64.2,53.8,65.2,59.3,45.5,95,85,66,29.85,29.50,11,4,19,0.08
2014-10-14,68.4,63.2,57.2,63.1,59.2,54.0,93,87,82,29.59,29.43,11,3,18,0.70
2014-10-15,62.0,57.7,55.1,54.4,53.1,50.6,92,85,68,29.74,29.58,6,1,12,0.06
2014-10-16,58.0,55.8,51.1,55.2,51.7,49.1,95,86,81,29.77,29.64,9,3,13,0.00
2014-10-17,59.9,55.6,51.3,52.8,49.2,42.2,89,79,70,29.76,29.49,19,8,27,0.01
2014-10-18,51.7,48.4,42.2,43.7,40.4,34.2,84,74,64,30.15,29.77,17,10,25,0.17
2014-10-19,53.5,45.0,34.1,43.2,36.8,30.9,89,74,58,30.18,29.89,7,2,14,0.00
2014-10-20,55.6,51.9,47.9,50.1,46.2,43.0,91,81,73,29.92,29.75,10,4,17,0.12
2014-10-21,52.2,48.1,35.9,47.9,40.7,33.0,89,76,66,30.22,29.91,11,3,17,0.10
2014-10-22,51.7,41.9,32.9,39.2,35.5,30.6,93,79,49,30.34,30.21,9,1,13,0.01
2014-10-23,59.0,47.2,36.9,44.6,39.6,34.6,93,76,50,30.25,30.03,5,1,12,0.01
2014-10-24,60.1,53.6,48.9,49.8,46.2,41.7,89,76,67,30.03,29.88,6,1,9,0.00
2014-10-25,63.1,59.2,53.1,55.2,49.0,39.3,91,70,46,29.88,29.81,15,6,20,0.00
2014-10-26,57.8,52.3,43.8,41.6,38.2,34.7,81,59,50,29.97,29.86,13,5,21,0.00
2014-10-27,75.6,62.4,46.4,59.9,46.5,33.2,71,57,41,29.87,29.54,10,5,19,0.00
2014-10-29,48.2,47.8,47.4,33.8,33.0,31.4,59,56,53,30.08,30.07,9,5,15,0.00
2014-10-30,51.1,48.8,44.8,38.9,35.4,33.2,74,60,54,30.09,29.95,8,3,12,0.00
2014-10-31,50.7,42.5,34.0,40.9,35.5,29.1,89,77,58,30.09,29.90,28,13,38,0.50
2014-11-3,62.1,60.5,59.0,41.1,34.1,28.1,51,38,29,29.97,29.91,8,4,18,0.00
2014-11-4,60.2,52.7,48.3,51.3,42.8,31.6,92,71,34,30.02,29.84,12,6,21,0.04
2014-11-5,58.3,51.7,47.0,42.6,38.4,32.5,75,61,46,30.11,29.82,10,4,20,0.00
2014-11-6,51.6,45.1,40.2,43.9,37.6,30.3,89,75,47,30.11,29.69,26,14,35,0.04
2014-11-7,42.6,40.4,37.0,33.0,30.3,27.7,82,67,58,30.13,29.97,15,5,19,0.00